National Water Information System: Web Interface

Warning: Javascript must be enabled to use all the features on this page!


Page Loading - Please Wait...

Click to hideNews Bulletins
Click to hide state-specific text

Welcome to the NWIS-Web for the Arizona Water Science Center


The majority of USGS Gaging Stations are funded though a cooperative program between the USGS other interested agencies.
Follow this link for information on the Cooperative Water Program with the USGS.


Threatened and Endangered USGS Gaging Stations in Arizona
Colorado Basin River Forecast Center - provided by the National Weather Service, AHPS. CBRFC on Google Maps.
Arizona Water Science Center Home Page

USGS 09471000 SAN PEDRO RIVER AT CHARLESTON, AZ.

PROVISIONAL DATA SUBJECT TO REVISION

Click to hidestation-specific text
Station operated in cooperation with Cochise County, the Bureau of Land Management, and the Arizona Department of Water Resources.

HIGH DATA RATE (Site data are transmitted & updated hourly)
rainfall Arrow
This station managed by the Tucson Field Office; USGS, AZ-WSC.

Available Parameters Available Period
All 3 Available Parameters for this site
  
00065 Gage height [Bubbler Stage Sensor] 2007-10-01  2014-07-30
00060 Discharge 2007-10-01  2014-07-30
00045 Precipitation 2014-04-01  2014-07-30

Graph
Graph w/ stats
Graph w/o stats
Graph w/ (up to 3) parms
Table
Tab-separated
Days  (7)
 

  -- or --
Begin date
 

End date
 

Summary of all available data for this site
Instantaneous-data availability statement






Date / Time




Gage
height,
feet,
[Bubbler
Stage
Sensor]




Dis-
charge,
ft3/s,



Precip-
itation
total,
inches,
07/23/2014 00:00 MST2.01P  7.09P  0.00P  
07/23/2014 00:15 MST2.01P  7.09P  0.00P  
07/23/2014 00:30 MST2.01P  7.09P  0.00P  
07/23/2014 00:45 MST2.01P  7.09P  0.00P  
07/23/2014 01:00 MST2.01P  7.09P  0.00P  
07/23/2014 01:15 MST2.01P  7.09P  0.00P  
07/23/2014 01:30 MST2.02P  7.44P  0.00P  
07/23/2014 01:45 MST2.01P  7.09P  0.00P  
07/23/2014 02:00 MST2.02P  7.44P  0.00P  
07/23/2014 02:15 MST2.01P  7.09P  0.00P  
07/23/2014 02:30 MST2.02P  7.44P  0.00P  
07/23/2014 02:45 MST2.02P  7.44P  0.00P  
07/23/2014 03:00 MST2.02P  7.44P  0.00P  
07/23/2014 03:15 MST2.02P  7.44P  0.00P  
07/23/2014 03:30 MST2.02P  7.44P  0.00P  
07/23/2014 03:45 MST2.02P  7.44P  0.00P  
07/23/2014 04:00 MST2.02P  7.44P  0.00P  
07/23/2014 04:15 MST2.02P  7.44P  0.00P  
07/23/2014 04:30 MST2.02P  7.44P  0.00P  
07/23/2014 04:45 MST2.02P  7.44P  0.00P  
07/23/2014 05:00 MST2.02P  7.44P  0.00P  
07/23/2014 05:15 MST2.02P  7.44P  0.00P  
07/23/2014 05:30 MST2.02P  7.44P  0.00P  
07/23/2014 05:45 MST2.02P  7.44P  0.00P  
07/23/2014 06:00 MST2.02P  7.44P  0.00P  
07/23/2014 06:15 MST2.02P  7.44P  0.00P  
07/23/2014 06:30 MST2.02P  7.44P  0.00P  
07/23/2014 06:45 MST2.02P  7.44P  0.00P  
07/23/2014 07:00 MST2.02P  7.44P  0.00P  
07/23/2014 07:15 MST2.02P  7.44P  0.00P  
07/23/2014 07:30 MST2.03P  7.81P  0.00P  
07/23/2014 07:45 MST2.02P  7.44P  0.00P  
07/23/2014 08:00 MST2.03P  7.81P  0.00P  
07/23/2014 08:15 MST2.02P  7.44P  0.00P  
07/23/2014 08:30 MST2.03P  7.81P  0.00P  
07/23/2014 08:45 MST2.02P  7.44P  0.00P  
07/23/2014 09:00 MST2.03P  7.81P  0.00P  
07/23/2014 09:15 MST2.02P  7.44P  0.00P  
07/23/2014 09:30 MST2.02P  7.44P  0.00P  
07/23/2014 09:45 MST2.02P  7.44P  0.00P  
07/23/2014 10:00 MST2.02P  7.44P  0.00P  
07/23/2014 10:15 MST2.02P  7.44P  0.00P  
07/23/2014 10:30 MST2.02P  7.44P  0.00P  
07/23/2014 10:45 MST2.01P  7.09P  0.00P  
07/23/2014 11:00 MST2.01P  7.09P  0.00P  
07/23/2014 11:15 MST2.01P  7.09P  0.00P  
07/23/2014 11:30 MST2.01P  7.09P  0.00P  
07/23/2014 11:45 MST2.01P  7.09P  0.00P  
07/23/2014 12:00 MST2.00P  6.76P  0.00P  
07/23/2014 12:15 MST2.00P  6.76P  0.00P  
07/23/2014 12:30 MST2.00P  6.76P  0.00P  
07/23/2014 12:45 MST2.00P  6.76P  0.00P  
07/23/2014 13:00 MST2.00P  6.76P  0.00P  
07/23/2014 13:14 MST2.00P  6.76P  0.00P  
07/23/2014 13:15 MST2.00P  6.76P  0.00P  
07/23/2014 13:29 MST2.00P  6.76P  0.00P  
07/23/2014 13:30 MST1.99P  6.43P  0.00P  
07/23/2014 13:45 MST1.99P  6.43P  0.00P  
07/23/2014 14:00 MST1.99P  6.43P  0.00P  
07/23/2014 14:15 MST1.99P  6.43P  0.00P  
07/23/2014 14:30 MST1.99P  6.43P  0.00P  
07/23/2014 14:45 MST1.99P  6.43P  0.00P  
07/23/2014 15:00 MST1.99P  6.43P  0.00P  
07/23/2014 15:15 MST1.99P  6.43P  0.00P  
07/23/2014 15:30 MST1.99P  6.43P  0.00P  
07/23/2014 15:45 MST1.99P  6.43P  0.00P  
07/23/2014 16:00 MST1.99P  6.43P  0.00P  
07/23/2014 16:15 MST1.98P  6.11P  0.00P  
07/23/2014 16:30 MST1.99P  6.43P  0.00P  
07/23/2014 16:45 MST1.98P  6.11P  0.00P  
07/23/2014 17:00 MST1.98P  6.11P  0.00P  
07/23/2014 17:15 MST1.98P  6.11P  0.00P  
07/23/2014 17:30 MST1.98P  6.11P  0.00P  
07/23/2014 17:45 MST1.98P  6.11P  0.00P  
07/23/2014 18:00 MST1.98P  6.11P  0.00P  
07/23/2014 18:15 MST1.98P  6.11P  0.00P  
07/23/2014 18:30 MST1.98P  6.11P  0.00P  
07/23/2014 18:45 MST1.98P  6.11P  0.00P  
07/23/2014 19:00 MST1.98P  6.11P  0.00P  
07/23/2014 19:15 MST1.98P  6.11P  0.00P  
07/23/2014 19:30 MST1.98P  6.11P  0.00P  
07/23/2014 19:45 MST1.98P  6.11P  0.00P  
07/23/2014 20:00 MST1.98P  6.11P  0.00P  
07/23/2014 20:15 MST1.98P  6.11P  0.00P  
07/23/2014 20:30 MST1.98P  6.11P  0.00P  
07/23/2014 20:45 MST1.98P  6.11P  0.00P  
07/23/2014 21:00 MST1.98P  6.11P  0.00P  
07/23/2014 21:15 MST1.98P  6.11P  0.00P  
07/23/2014 21:30 MST1.98P  6.11P  0.00P  
07/23/2014 21:45 MST1.98P  6.11P  0.00P  
07/23/2014 22:00 MST1.99P  6.43P  0.00P  
07/23/2014 22:15 MST1.99P  6.43P  0.00P  
07/23/2014 22:30 MST1.99P  6.43P  0.00P  
07/23/2014 22:45 MST1.99P  6.43P  0.00P  
07/23/2014 23:00 MST1.99P  6.43P  0.00P  
07/23/2014 23:15 MST1.99P  6.43P  0.00P  
07/23/2014 23:30 MST1.99P  6.43P  0.00P  
07/23/2014 23:45 MST1.99P  6.43P  0.00P  
07/24/2014 00:00 MST1.99P  6.43P  0.00P  
07/24/2014 00:15 MST1.99P  6.43P  0.00P  
07/24/2014 00:30 MST1.99P  6.43P  0.00P  
07/24/2014 00:45 MST2.00P  6.76P  0.00P  
07/24/2014 01:00 MST1.99P  6.43P  0.00P  
07/24/2014 01:15 MST2.00P  6.76P  0.00P  
07/24/2014 01:30 MST2.00P  6.76P  0.00P  
07/24/2014 01:45 MST2.00P  6.76P  0.00P  
07/24/2014 02:00 MST2.00P  6.76P  0.00P  
07/24/2014 02:15 MST2.00P  6.76P  0.00P  
07/24/2014 02:30 MST2.00P  6.76P  0.00P  
07/24/2014 02:45 MST2.00P  6.76P  0.00P  
07/24/2014 03:00 MST2.00P  6.76P  0.00P  
07/24/2014 03:15 MST2.00P  6.76P  0.00P  
07/24/2014 03:30 MST2.00P  6.76P  0.00P  
07/24/2014 03:45 MST2.00P  6.76P  0.00P  
07/24/2014 04:00 MST2.00P  6.76P  0.00P  
07/24/2014 04:15 MST2.00P  6.76P  0.00P  
07/24/2014 04:30 MST2.00P  6.76P  0.00P  
07/24/2014 04:45 MST2.01P  7.09P  0.00P  
07/24/2014 05:00 MST2.01P  7.09P  0.00P  
07/24/2014 05:15 MST2.01P  7.09P  0.00P  
07/24/2014 05:30 MST2.01P  7.09P  0.00P  
07/24/2014 05:45 MST2.01P  7.09P  0.00P  
07/24/2014 06:00 MST2.01P  7.09P  0.00P  
07/24/2014 06:15 MST2.01P  7.09P  0.00P  
07/24/2014 06:30 MST2.01P  7.09P  0.00P  
07/24/2014 06:45 MST2.01P  7.09P  0.00P  
07/24/2014 07:00 MST2.01P  7.09P  0.00P  
07/24/2014 07:15 MST2.01P  7.09P  0.00P  
07/24/2014 07:30 MST2.01P  7.09P  0.00P  
07/24/2014 07:45 MST2.01P  7.09P  0.00P  
07/24/2014 08:00 MST2.01P  7.09P  0.00P  
07/24/2014 08:15 MST2.01P  7.09P  0.00P  
07/24/2014 08:30 MST2.01P  7.09P  0.00P  
07/24/2014 08:45 MST2.01P  7.09P  0.00P  
07/24/2014 09:00 MST2.01P  7.09P  0.00P  
07/24/2014 09:15 MST2.01P  7.09P  0.00P  
07/24/2014 09:30 MST2.01P  7.09P  0.00P  
07/24/2014 09:45 MST2.00P  6.76P  0.00P  
07/24/2014 10:00 MST2.01P  7.09P  0.00P  
07/24/2014 10:15 MST2.00P  6.76P  0.00P  
07/24/2014 10:30 MST2.00P  6.76P  0.00P  
07/24/2014 10:45 MST2.00P  6.76P  0.00P  
07/24/2014 11:00 MST2.00P  6.76P  0.00P  
07/24/2014 11:15 MST2.00P  6.76P  0.00P  
07/24/2014 11:30 MST1.99P  6.43P  0.00P  
07/24/2014 11:45 MST1.99P  6.43P  0.00P  
07/24/2014 12:00 MST1.99P  6.43P  0.00P  
07/24/2014 12:15 MST1.99P  6.43P  0.00P  
07/24/2014 12:30 MST1.99P  6.43P  0.00P  
07/24/2014 12:45 MST1.98P  6.11P  0.00P  
07/24/2014 13:00 MST1.98P  6.11P  0.00P  
07/24/2014 13:14 MST1.98P  6.11P  0.00P  
07/24/2014 13:15 MST1.98P  6.11P  0.00P  
07/24/2014 13:29 MST1.98P  6.11P  0.00P  
07/24/2014 13:30 MST1.98P  6.11P  0.00P  
07/24/2014 13:45 MST1.98P  6.11P  0.00P  
07/24/2014 14:00 MST1.98P  6.11P  0.00P  
07/24/2014 14:15 MST1.97P  5.81P  0.00P  
07/24/2014 14:30 MST1.97P  5.81P  0.00P  
07/24/2014 14:45 MST1.97P  5.81P  0.00P  
07/24/2014 15:00 MST1.97P  5.81P  0.00P  
07/24/2014 15:15 MST1.97P  5.81P  0.00P  
07/24/2014 15:30 MST1.98P  6.11P  0.00P  
07/24/2014 15:45 MST1.98P  6.11P  0.00P  
07/24/2014 16:00 MST1.98P  6.11P  0.00P  
07/24/2014 16:15 MST1.98P  6.11P  0.00P  
07/24/2014 16:30 MST1.98P  6.11P  0.00P  
07/24/2014 16:45 MST1.97P  5.81P  0.00P  
07/24/2014 17:00 MST1.97P  5.81P  0.00P  
07/24/2014 17:15 MST1.97P  5.81P  0.00P  
07/24/2014 17:30 MST1.96P  5.52P  0.00P  
07/24/2014 17:45 MST1.96P  5.52P  0.00P  
07/24/2014 18:00 MST1.96P  5.52P  0.00P  
07/24/2014 18:15 MST1.96P  5.52P  0.00P  
07/24/2014 18:30 MST1.96P  5.52P  0.00P  
07/24/2014 18:45 MST1.96P  5.52P  0.00P  
07/24/2014 19:00 MST1.96P  5.52P  0.00P  
07/24/2014 19:15 MST1.96P  5.52P  0.00P  
07/24/2014 19:30 MST1.96P  5.52P  0.00P  
07/24/2014 19:45 MST1.96P  5.52P  0.00P  
07/24/2014 20:00 MST1.96P  5.52P  0.00P  
07/24/2014 20:15 MST1.96P  5.52P  0.00P  
07/24/2014 20:30 MST1.96P  5.52P  0.00P  
07/24/2014 20:45 MST1.96P  5.52P  0.00P  
07/24/2014 21:00 MST1.96P  5.52P  0.00P  
07/24/2014 21:15 MST1.96P  5.52P  0.00P  
07/24/2014 21:30 MST1.96P  5.52P  0.00P  
07/24/2014 21:45 MST1.96P  5.52P  0.00P  
07/24/2014 22:00 MST1.96P  5.52P  0.00P  
07/24/2014 22:15 MST1.97P  5.81P  0.00P  
07/24/2014 22:30 MST1.97P  5.81P  0.00P  
07/24/2014 22:45 MST1.97P  5.81P  0.00P  
07/24/2014 23:00 MST1.97P  5.81P  0.00P  
07/24/2014 23:15 MST1.97P  5.81P  0.00P  
07/24/2014 23:30 MST1.97P  5.81P  0.00P  
07/24/2014 23:45 MST1.97P  5.81P  0.00P  
07/25/2014 00:00 MST1.97P  5.81P  0.00P  
07/25/2014 00:15 MST1.97P  5.81P  0.00P  
07/25/2014 00:30 MST1.98P  6.11P  0.00P  
07/25/2014 00:45 MST1.98P  6.11P  0.00P  
07/25/2014 01:00 MST1.98P  6.11P  0.00P  
07/25/2014 01:15 MST1.98P  6.11P  0.00P  
07/25/2014 01:30 MST1.98P  6.11P  0.00P  
07/25/2014 01:45 MST1.98P  6.11P  0.00P  
07/25/2014 02:00 MST1.98P  6.11P  0.00P  
07/25/2014 02:15 MST1.98P  6.11P  0.00P  
07/25/2014 02:30 MST1.99P  6.43P  0.00P  
07/25/2014 02:45 MST1.98P  6.11P  0.00P  
07/25/2014 03:00 MST1.99P  6.43P  0.00P  
07/25/2014 03:15 MST1.99P  6.43P  0.00P  
07/25/2014 03:30 MST1.99P  6.43P  0.00P  
07/25/2014 03:45 MST1.99P  6.43P  0.00P  
07/25/2014 04:00 MST1.99P  6.43P  0.00P  
07/25/2014 04:15 MST1.99P  6.43P  0.00P  
07/25/2014 04:30 MST1.99P  6.43P  0.00P  
07/25/2014 04:45 MST1.99P  6.43P  0.00P  
07/25/2014 05:00 MST1.99P  6.43P  0.00P  
07/25/2014 05:15 MST1.99P  6.43P  0.00P  
07/25/2014 05:30 MST1.99P  6.43P  0.00P  
07/25/2014 05:45 MST1.99P  6.43P  0.00P  
07/25/2014 06:00 MST1.99P  6.43P  0.00P  
07/25/2014 06:15 MST1.99P  6.43P  0.00P  
07/25/2014 06:30 MST1.99P  6.43P  0.00P  
07/25/2014 06:45 MST2.00P  6.76P  0.00P  
07/25/2014 07:00 MST1.99P  6.43P  0.00P  
07/25/2014 07:15 MST1.99P  6.43P  0.00P  
07/25/2014 07:30 MST1.99P  6.43P  0.00P  
07/25/2014 07:45 MST1.99P  6.43P  0.00P  
07/25/2014 08:00 MST2.00P  6.76P  0.00P  
07/25/2014 08:15 MST2.00P  6.76P  0.00P  
07/25/2014 08:30 MST2.00P  6.76P  0.00P  
07/25/2014 08:45 MST2.00P  6.76P  0.00P  
07/25/2014 09:00 MST2.00P  6.76P  0.00P  
07/25/2014 09:15 MST1.99P  6.43P  0.00P  
07/25/2014 09:30 MST1.99P  6.43P  0.00P  
07/25/2014 09:45 MST1.99P  6.43P  0.00P  
07/25/2014 10:00 MST1.99P  6.43P  0.00P  
07/25/2014 10:15 MST1.99P  6.43P  0.00P  
07/25/2014 10:30 MST1.99P  6.43P  0.00P  
07/25/2014 10:45 MST1.99P  6.43P  0.00P  
07/25/2014 11:00 MST1.98P  6.11P  0.00P  
07/25/2014 11:15 MST1.98P  6.11P  0.00P  
07/25/2014 11:30 MST1.98P  6.11P  0.00P  
07/25/2014 11:45 MST1.98P  6.11P  0.00P  
07/25/2014 12:00 MST1.98P  6.11P  0.00P  
07/25/2014 12:15 MST1.98P  6.11P  0.00P  
07/25/2014 12:30 MST1.98P  6.11P  0.00P  
07/25/2014 12:45 MST1.97P  5.81P  0.00P  
07/25/2014 13:00 MST1.97P  5.81P  0.00P  
07/25/2014 13:14 MST1.97P  5.81P  0.00P  
07/25/2014 13:15 MST1.97P  5.81P  0.00P  
07/25/2014 13:29 MST1.97P  5.81P  0.00P  
07/25/2014 13:30 MST1.97P  5.81P  0.00P  
07/25/2014 13:45 MST1.97P  5.81P  0.00P  
07/25/2014 14:00 MST1.97P  5.81P  0.00P  
07/25/2014 14:15 MST1.96P  5.52P  0.00P  
07/25/2014 14:30 MST1.96P  5.52P  0.00P  
07/25/2014 14:45 MST1.96P  5.52P  0.00P  
07/25/2014 15:00 MST1.96P  5.52P  0.00P  
07/25/2014 15:15 MST1.96P  5.52P  0.00P  
07/25/2014 15:30 MST1.96P  5.52P  0.00P  
07/25/2014 15:45 MST1.96P  5.52P  0.00P  
07/25/2014 16:00 MST1.95P  5.23P  0.00P  
07/25/2014 16:15 MST1.95P  5.23P  0.00P  
07/25/2014 16:30 MST1.95P  5.23P  0.00P  
07/25/2014 16:45 MST1.95P  5.23P  0.00P  
07/25/2014 17:00 MST1.95P  5.23P  0.00P  
07/25/2014 17:15 MST1.95P  5.23P  0.00P  
07/25/2014 17:30 MST1.95P  5.23P  0.00P  
07/25/2014 17:45 MST1.95P  5.23P  0.00P  
07/25/2014 18:00 MST1.95P  5.23P  0.00P  
07/25/2014 18:15 MST1.96P  5.52P  0.00P  
07/25/2014 18:30 MST1.96P  5.52P  0.00P  
07/25/2014 18:45 MST1.96P  5.52P  0.00P  
07/25/2014 19:00 MST1.96P  5.52P  0.00P  
07/25/2014 19:15 MST1.96P  5.52P  0.00P  
07/25/2014 19:30 MST1.96P  5.52P  0.00P  
07/25/2014 19:45 MST1.96P  5.52P  0.00P  
07/25/2014 20:00 MST1.96P  5.52P  0.00P  
07/25/2014 20:15 MST1.96P  5.52P  0.00P  
07/25/2014 20:30 MST1.96P  5.52P  0.00P  
07/25/2014 20:45 MST1.96P  5.52P  0.00P  
07/25/2014 21:00 MST1.96P  5.52P  0.00P  
07/25/2014 21:15 MST1.96P  5.52P  0.00P  
07/25/2014 21:30 MST1.97P  5.81P  0.00P  
07/25/2014 21:45 MST1.97P  5.81P  0.00P  
07/25/2014 22:00 MST1.97P  5.81P  0.00P  
07/25/2014 22:15 MST1.97P  5.81P  0.00P  
07/25/2014 22:30 MST1.97P  5.81P  0.00P  
07/25/2014 22:45 MST1.97P  5.81P  0.00P  
07/25/2014 23:00 MST1.97P  5.81P  0.00P  
07/25/2014 23:15 MST1.97P  5.81P  0.00P  
07/25/2014 23:30 MST1.97P  5.81P  0.00P  
07/25/2014 23:45 MST1.98P  6.11P  0.00P  
07/26/2014 00:00 MST1.98P  6.11P  0.00P  
07/26/2014 00:15 MST1.98P  6.11P  0.00P  
07/26/2014 00:30 MST1.98P  6.11P  0.00P  
07/26/2014 00:45 MST1.98P  6.11P  0.00P  
07/26/2014 01:00 MST1.98P  6.11P  0.00P  
07/26/2014 01:15 MST1.98P  6.11P  0.00P  
07/26/2014 01:30 MST1.98P  6.11P  0.00P  
07/26/2014 01:45 MST1.98P  6.11P  0.00P  
07/26/2014 02:00 MST1.98P  6.11P  0.00P  
07/26/2014 02:15 MST1.98P  6.11P  0.00P  
07/26/2014 02:30 MST1.98P  6.11P  0.00P  
07/26/2014 02:45 MST1.98P  6.11P  0.00P  
07/26/2014 03:00 MST1.98P  6.11P  0.00P  
07/26/2014 03:15 MST1.98P  6.11P  0.00P  
07/26/2014 03:30 MST1.98P  6.11P  0.00P  
07/26/2014 03:45 MST1.98P  6.11P  0.00P  
07/26/2014 04:00 MST1.98P  6.11P  0.00P  
07/26/2014 04:15 MST1.98P  6.11P  0.00P  
07/26/2014 04:30 MST1.98P  6.11P  0.00P  
07/26/2014 04:45 MST1.98P  6.11P  0.00P  
07/26/2014 05:00 MST1.98P  6.11P  0.00P  
07/26/2014 05:15 MST1.98P  6.11P  0.00P  
07/26/2014 05:30 MST1.98P  6.11P  0.00P  
07/26/2014 05:45 MST1.98P  6.11P  0.00P  
07/26/2014 06:00 MST1.98P  6.11P  0.00P  
07/26/2014 06:15 MST1.98P  6.11P  0.00P  
07/26/2014 06:30 MST1.98P  6.11P  0.00P  
07/26/2014 06:45 MST1.98P  6.11P  0.00P  
07/26/2014 07:00 MST1.99P  6.43P  0.00P  
07/26/2014 07:15 MST1.99P  6.43P  0.00P  
07/26/2014 07:30 MST1.98P  6.11P  0.00P  
07/26/2014 07:45 MST1.99P  6.43P  0.00P  
07/26/2014 08:00 MST1.99P  6.43P  0.00P  
07/26/2014 08:15 MST1.99P  6.43P  0.00P  
07/26/2014 08:30 MST1.99P  6.43P  0.00P  
07/26/2014 08:45 MST1.99P  6.43P  0.00P  
07/26/2014 09:00 MST1.99P  6.43P  0.00P  
07/26/2014 09:15 MST1.99P  6.43P  0.00P  
07/26/2014 09:30 MST1.99P  6.43P  0.00P  
07/26/2014 09:45 MST1.98P  6.11P  0.00P  
07/26/2014 10:00 MST1.99P  6.43P  0.00P  
07/26/2014 10:15 MST1.98P  6.11P  0.00P  
07/26/2014 10:30 MST1.98P  6.11P  0.00P  
07/26/2014 10:45 MST1.98P  6.11P  0.00P  
07/26/2014 11:00 MST1.98P  6.11P  0.00P  
07/26/2014 11:15 MST1.98P  6.11P  0.00P  
07/26/2014 11:30 MST1.98P  6.11P  0.00P  
07/26/2014 11:45 MST1.97P  5.81P  0.00P  
07/26/2014 12:00 MST1.98P  6.11P  0.00P  
07/26/2014 12:15 MST1.97P  5.81P  0.00P  
07/26/2014 12:30 MST1.97P  5.81P  0.00P  
07/26/2014 12:45 MST1.97P  5.81P  0.00P  
07/26/2014 13:00 MST1.97P  5.81P  0.00P  
07/26/2014 13:14 MST1.97P  5.81P  0.00P  
07/26/2014 13:15 MST1.96P  5.52P  0.00P  
07/26/2014 13:29 MST1.96P  5.52P  0.00P  
07/26/2014 13:30 MST1.96P  5.52P  0.00P  
07/26/2014 13:45 MST1.96P  5.52P  0.00P  
07/26/2014 14:00 MST1.96P  5.52P  0.00P  
07/26/2014 14:15 MST1.96P  5.52P  0.00P  
07/26/2014 14:30 MST1.95P  5.23P  0.00P  
07/26/2014 14:45 MST1.95P  5.23P  0.00P  
07/26/2014 15:00 MST1.95P  5.23P  0.00P  
07/26/2014 15:15 MST1.95P  5.23P  0.00P  
07/26/2014 15:30 MST1.95P  5.23P  0.00P  
07/26/2014 15:45 MST1.95P  5.23P  0.00P  
07/26/2014 16:00 MST1.95P  5.23P  0.00P  
07/26/2014 16:15 MST1.95P  5.23P  0.00P  
07/26/2014 16:30 MST2.19P  15.4P  0.00P  
07/26/2014 16:45 MST2.33P  24.5P  0.00P  
07/26/2014 17:00 MST2.35P  26.0P  0.00P  
07/26/2014 17:15 MST2.37P  27.5P  0.00P  
07/26/2014 17:30 MST2.37P  27.5P  0.00P  
07/26/2014 17:45 MST2.37P  27.5P  0.00P  
07/26/2014 18:00 MST2.37P  27.5P  0.00P  
07/26/2014 18:15 MST2.36P  26.8P  0.00P  
07/26/2014 18:30 MST2.36P  26.8P  0.00P  
07/26/2014 18:45 MST2.36P  26.8P  0.00P  
07/26/2014 19:00 MST2.35P  26.0P  0.00P  
07/26/2014 19:15 MST2.34P  25.2P  0.00P  
07/26/2014 19:30 MST2.34P  25.2P  0.00P  
07/26/2014 19:45 MST2.34P  25.2P  0.00P  
07/26/2014 20:00 MST2.33P  24.5P  0.00P  
07/26/2014 20:15 MST2.33P  24.5P  0.00P  
07/26/2014 20:30 MST2.32P  23.8P  0.00P  
07/26/2014 20:45 MST2.32P  23.8P  0.00P  
07/26/2014 21:00 MST2.31P  23.1P  0.00P  
07/26/2014 21:15 MST2.31P  23.1P  0.00P  
07/26/2014 21:30 MST2.30P  22.4P  0.00P  
07/26/2014 21:45 MST2.30P  22.4P  0.00P  
07/26/2014 22:00 MST2.29P  21.7P  0.00P  
07/26/2014 22:15 MST2.29P  21.7P  0.00P  
07/26/2014 22:30 MST2.28P  21.1P  0.00P  
07/26/2014 22:45 MST2.28P  21.1P  0.00P  
07/26/2014 23:00 MST2.28P  21.1P  0.00P  
07/26/2014 23:15 MST2.27P  20.4P  0.00P  
07/26/2014 23:30 MST2.27P  20.4P  0.00P  
07/26/2014 23:45 MST2.26P  19.8P  0.00P  
07/27/2014 00:00 MST2.26P  19.8P  0.00P  
07/27/2014 00:15 MST2.26P  19.8P  0.00P  
07/27/2014 00:30 MST2.25P  19.2P  0.00P  
07/27/2014 00:45 MST2.25P  19.2P  0.00P  
07/27/2014 01:00 MST2.25P  19.2P  0.00P  
07/27/2014 01:15 MST2.24P  18.6P  0.00P  
07/27/2014 01:30 MST2.24P  18.6P  0.00P  
07/27/2014 01:45 MST2.24P  18.6P  0.00P  
07/27/2014 02:00 MST2.23P  17.9P  0.00P  
07/27/2014 02:15 MST2.23P  17.9P  0.00P  
07/27/2014 02:30 MST2.23P  17.9P  0.00P  
07/27/2014 02:45 MST2.23P  17.9P  0.00P  
07/27/2014 03:00 MST2.22P  17.3P  0.00P  
07/27/2014 03:15 MST2.22P  17.3P  0.00P  
07/27/2014 03:30 MST2.22P  17.3P  0.00P  
07/27/2014 03:45 MST2.22P  17.3P  0.00P  
07/27/2014 04:00 MST2.21P  16.6P  0.00P  
07/27/2014 04:15 MST2.21P  16.6P  0.00P  
07/27/2014 04:30 MST2.21P  16.6P  0.00P  
07/27/2014 04:45 MST2.21P  16.6P  0.00P  
07/27/2014 05:00 MST2.20P  16.0P  0.00P  
07/27/2014 05:15 MST2.20P  16.0P  0.00P  
07/27/2014 05:30 MST2.20P  16.0P  0.00P  
07/27/2014 05:45 MST2.20P  16.0P  0.00P  
07/27/2014 06:00 MST2.19P  15.4P  0.00P  
07/27/2014 06:15 MST2.19P  15.4P  0.00P  
07/27/2014 06:30 MST2.19P  15.4P  0.00P  
07/27/2014 06:45 MST2.19P  15.4P  0.00P  
07/27/2014 07:00 MST2.19P  15.4P  0.00P  
07/27/2014 07:15 MST2.18P  14.8P  0.00P  
07/27/2014 07:30 MST2.18P  14.8P  0.00P  
07/27/2014 07:45 MST2.18P  14.8P  0.00P  
07/27/2014 08:00 MST2.18P  14.8P  0.00P  
07/27/2014 08:15 MST2.17P  14.3P  0.00P  
07/27/2014 08:30 MST2.17P  14.3P  0.00P  
07/27/2014 08:45 MST2.17P  14.3P  0.00P  
07/27/2014 09:00 MST2.17P  14.3P  0.00P  
07/27/2014 09:15 MST2.16P  13.7P  0.00P  
07/27/2014 09:30 MST2.16P  13.7P  0.00P  
07/27/2014 09:45 MST2.16P  13.7P  0.00P  
07/27/2014 10:00 MST2.16P  13.7P  0.00P  
07/27/2014 10:15 MST2.16P  13.7P  0.00P  
07/27/2014 10:30 MST2.16P  13.7P  0.00P  
07/27/2014 10:45 MST2.16P  13.7P  0.00P  
07/27/2014 11:00 MST2.16P  13.7P  0.00P  
07/27/2014 11:15 MST2.15P  13.2P  0.00P  
07/27/2014 11:30 MST2.15P  13.2P  0.00P  
07/27/2014 11:45 MST2.16P  13.7P  0.00P  
07/27/2014 12:00 MST2.15P  13.2P  0.00P  
07/27/2014 12:15 MST2.16P  13.7P  0.00P  
07/27/2014 12:30 MST2.16P  13.7P  0.00P  
07/27/2014 12:45 MST2.16P  13.7P  0.00P  
07/27/2014 13:00 MST2.15P  13.2P  0.00P  
07/27/2014 13:14 MST2.15P  13.2P  0.00P  
07/27/2014 13:15 MST2.15P  13.2P  0.00P  
07/27/2014 13:29 MST2.15P  13.2P  0.00P  
07/27/2014 13:30 MST2.15P  13.2P  0.00P  
07/27/2014 13:45 MST2.15P  13.2P  0.00P  
07/27/2014 14:00 MST2.15P  13.2P  0.00P  
07/27/2014 14:15 MST2.14P  12.6P  0.00P  
07/27/2014 14:30 MST2.14P  12.6P  0.00P  
07/27/2014 14:45 MST2.14P  12.6P  0.00P  
07/27/2014 15:00 MST2.13P  12.1P  0.00P  
07/27/2014 15:15 MST3.54P  248P  0.00P  
07/27/2014 15:29 MST4.03P  433P  0.00P  
07/27/2014 15:30 MST4.03P  433P  0.00P  
07/27/2014 15:44 MST4.25P  539P  0.00P  
07/27/2014 15:45 MST4.25P  539P  0.00P  
07/27/2014 15:59 MST4.37P  603P  0.00P  
07/27/2014 16:00 MST4.37P  603P  0.00P  
07/27/2014 16:14 MST4.45P  648P  0.00P  
07/27/2014 16:15 MST4.45P  648P  0.00P  
07/27/2014 16:29 MST4.54P  701P  0.00P  
07/27/2014 16:30 MST4.54P  701P  0.00P  
07/27/2014 16:44 MST4.57P  720P  0.00P  
07/27/2014 16:45 MST4.57P  720P  0.00P  
07/27/2014 16:59 MST4.57P  720P  0.00P  
07/27/2014 17:00 MST4.57P  720P  0.00P  
07/27/2014 17:14 MST4.57P  720P  0.00P  
07/27/2014 17:15 MST4.57P  720P  0.00P  
07/27/2014 17:29 MST4.63P  757P  0.00P  
07/27/2014 17:30 MST4.63P  757P  0.00P  
07/27/2014 17:44 MST4.66P  777P  0.00P  
07/27/2014 17:45 MST4.66P  777P  0.00P  
07/27/2014 17:59 MST4.66P  777P  0.00P  
07/27/2014 18:00 MST4.66P  777P  0.00P  
07/27/2014 18:14 MST4.70P  803P  0.00P  
07/27/2014 18:15 MST4.70P  803P  0.00P  
07/27/2014 18:29 MST4.80P  871P  0.00P  
07/27/2014 18:30 MST4.80P  871P  0.00P  
07/27/2014 18:44 MST4.75P  837P  0.00P  
07/27/2014 18:45 MST4.75P  837P  0.00P  
07/27/2014 18:59 MST4.81P  878P  0.00P  
07/27/2014 19:00 MST4.81P  878P  0.00P  
07/27/2014 19:14 MST4.77P  850P  0.00P  
07/27/2014 19:15 MST4.77P  850P  0.00P  
07/27/2014 19:29 MST4.81P  878P  0.00P  
07/27/2014 19:30 MST4.81P  878P  0.00P  
07/27/2014 19:44 MST4.84P  899P  0.00P  
07/27/2014 19:45 MST4.84P  899P  0.00P  
07/27/2014 19:59 MST4.85P  906P  0.00P  
07/27/2014 20:00 MST4.85P  906P  0.00P  
07/27/2014 20:14 MST4.93P  965P  0.00P  
07/27/2014 20:15 MST4.93P  965P  0.00P  
07/27/2014 20:29 MST4.85P  906P  0.00P  
07/27/2014 20:30 MST4.85P  906P  0.00P  
07/27/2014 20:44 MST4.87P  921P  0.08P  
07/27/2014 20:45 MST4.87P  921P  0.00P  
07/27/2014 20:59 MST4.82P  885P  0.00P  
07/27/2014 21:00 MST4.82P  885P  0.00P  
07/27/2014 21:14 MST4.80P  871P  0.00P  
07/27/2014 21:15 MST4.80P  871P  0.00P  
07/27/2014 21:29 MST4.85P  906P  0.01P  
07/27/2014 21:30 MST4.85P  906P  0.00P  
07/27/2014 21:44 MST4.76P  843P  0.01P  
07/27/2014 21:45 MST4.76P  843P  0.00P  
07/27/2014 21:59 MST4.76P  843P  0.01P  
07/27/2014 22:00 MST4.76P  843P  0.00P  
07/27/2014 22:14 MST4.66P  777P  0.03P  
07/27/2014 22:15 MST4.66P  777P  0.00P  
07/27/2014 22:29 MST4.53P  695P  0.03P  
07/27/2014 22:30 MST4.53P  695P  0.00P  
07/27/2014 22:44 MST4.48P  665P  0.03P  
07/27/2014 22:45 MST4.48P  665P  0.00P  
07/27/2014 22:59 MST4.41P  625P  0.04P  
07/27/2014 23:00 MST4.41P  625P  0.00P  
07/27/2014 23:14 MST4.36P  597P  0.04P  
07/27/2014 23:15 MST4.36P  597P  0.00P  
07/27/2014 23:29 MST4.50P  677P  0.02P  
07/27/2014 23:30 MST4.50P  677P  0.00P  
07/27/2014 23:44 MST4.56P  713P  0.02P  
07/27/2014 23:45 MST4.56P  713P  0.00P  
07/27/2014 23:59 MST4.67P  783P  0.02P  
07/28/2014 00:00 MST4.67P  783P  0.00P  
07/28/2014 00:14 MST4.71P  810P  0.03P  
07/28/2014 00:15 MST4.71P  810P  0.00P  
07/28/2014 00:29 MST4.82P  885P  0.02P  
07/28/2014 00:30 MST4.82P  885P  0.00P  
07/28/2014 00:44 MST4.81P  878P  0.01P  
07/28/2014 00:45 MST4.81P  878P  0.00P  
07/28/2014 00:59 MST4.62P  751P  0.00P  
07/28/2014 01:00 MST4.62P  751P  0.00P  
07/28/2014 01:14 MST4.53P  695P  0.01P  
07/28/2014 01:15 MST4.53P  695P  0.00P  
07/28/2014 01:29 MST4.35P  592P  0.00P  
07/28/2014 01:30 MST4.35P  592P  0.00P  
07/28/2014 01:44 MST4.20P  513P  0.00P  
07/28/2014 01:45 MST4.20P  513P  0.00P  
07/28/2014 02:00 MST4.09P  461P  0.00P  
07/28/2014 02:15 MST4.01P  424P  0.00P  
07/28/2014 02:30 MST3.93P  390P  0.00P  
07/28/2014 02:45 MST3.87P  365P  0.00P  
07/28/2014 03:00 MST3.80P  338P  0.00P  
07/28/2014 03:15 MST3.73P  312P  0.00P  
07/28/2014 03:30 MST3.70P  301P  0.00P  
07/28/2014 03:45 MST3.67P  291P  0.00P  
07/28/2014 04:00 MST3.80P  338P  0.00P  
07/28/2014 04:15 MST3.98P  411P  0.00P  
07/28/2014 04:29 MST4.19P  508P  0.00P  
07/28/2014 04:30 MST4.19P  508P  0.00P  
07/28/2014 04:44 MST4.33P  581P  0.00P  
07/28/2014 04:45 MST4.33P  581P  0.00P  
07/28/2014 04:59 MST4.49P  671P  0.00P  
07/28/2014 05:00 MST4.49P  671P  0.00P  
07/28/2014 05:14 MST4.59P  732P  0.00P  
07/28/2014 05:15 MST4.59P  732P  0.00P  
07/28/2014 05:29 MST4.55P  707P  0.00P  
07/28/2014 05:30 MST4.55P  707P  0.00P  
07/28/2014 05:44 MST4.56P  713P  0.00P  
07/28/2014 05:45 MST4.56P  713P  0.00P  
07/28/2014 05:59 MST4.78P  857P  0.00P  
07/28/2014 06:00 MST4.78P  857P  0.00P  
07/28/2014 06:14 MST4.75P  837P  0.00P  
07/28/2014 06:15 MST4.75P  837P  0.00P  
07/28/2014 06:29 MST4.79P  864P  0.00P  
07/28/2014 06:30 MST4.79P  864P  0.00P  
07/28/2014 06:44 MST4.83P  892P  0.00P  
07/28/2014 06:45 MST4.83P  892P  0.00P  
07/28/2014 06:59 MST4.88P  928P  0.00P  
07/28/2014 07:00 MST4.88P  928P  0.00P  
07/28/2014 07:14 MST4.86P  914P  0.00P  
07/28/2014 07:15 MST4.86P  914P  0.00P  
07/28/2014 07:29 MST4.86P  914P  0.00P  
07/28/2014 07:30 MST4.86P  914P  0.00P  
07/28/2014 07:44 MST4.86P  914P  0.00P  
07/28/2014 07:45 MST4.86P  914P  0.00P  
07/28/2014 07:59 MST4.98P  1,000P  0.00P  
07/28/2014 08:00 MST4.98P  1,000P  0.00P  
07/28/2014 08:14 MST4.96P  988P  0.00P  
07/28/2014 08:15 MST4.96P  988P  0.00P  
07/28/2014 08:29 MST4.93P  965P  0.00P  
07/28/2014 08:30 MST4.93P  965P  0.00P  
07/28/2014 08:44 MST4.99P  1,010P  0.00P  
07/28/2014 08:45 MST4.99P  1,010P  0.00P  
07/28/2014 08:59 MST4.98P  1,000P  0.00P  
07/28/2014 09:00 MST4.98P  1,000P  0.00P  
07/28/2014 09:14 MST4.99P  1,010P  0.00P  
07/28/2014 09:15 MST4.99P  1,010P  0.00P  
07/28/2014 09:29 MST5.06P  1,070P  0.00P  
07/28/2014 09:30 MST5.06P  1,070P  0.00P  
07/28/2014 09:44 MST5.15P  1,140P  0.00P  
07/28/2014 09:45 MST5.15P  1,140P  0.00P  
07/28/2014 09:59 MST5.09P  1,090P  0.00P  
07/28/2014 10:00 MST5.09P  1,090P  0.00P  
07/28/2014 10:14 MST5.03P  1,040P  0.00P  
07/28/2014 10:15 MST5.03P  1,040P  0.00P  
07/28/2014 10:29 MST5.15P  1,140P  0.00P  
07/28/2014 10:30 MST5.15P  1,140P  0.00P  
07/28/2014 10:44 MST5.16P  1,150P  0.00P  
07/28/2014 10:45 MST5.16P  1,150P  0.00P  
07/28/2014 10:59 MST5.14P  1,130P  0.00P  
07/28/2014 11:00 MST5.14P  1,130P  0.00P  
07/28/2014 11:14 MST5.19P  1,170P  0.00P  
07/28/2014 11:15 MST5.19P  1,170P  0.00P  
07/28/2014 11:29 MST5.20P  1,180P  0.00P  
07/28/2014 11:30 MST5.20P  1,180P  0.00P  
07/28/2014 11:44 MST5.18P  1,160P  0.00P  
07/28/2014 11:45 MST5.18P  1,160P  0.00P  
07/28/2014 11:59 MST5.23P  1,200P  0.00P  
07/28/2014 12:00 MST5.23P  1,200P  0.00P  
07/28/2014 12:14 MST5.26P  1,230P  0.00P  
07/28/2014 12:15 MST5.26P  1,230P  0.00P  
07/28/2014 12:29 MST5.20P  1,180P  0.00P  
07/28/2014 12:30 MST5.20P  1,180P  0.00P  
07/28/2014 12:44 MST5.27P  1,240P  0.00P  
07/28/2014 12:45 MST5.27P  1,240P  0.00P  
07/28/2014 12:59 MST5.21P  1,190P  0.00P  
07/28/2014 13:00 MST5.21P  1,190P  0.00P  
07/28/2014 13:14 MST5.29P  1,250P  0.00P  
07/28/2014 13:15 MST5.29P  1,250P  0.00P  
07/28/2014 13:29 MST5.25P  1,220P  0.00P  
07/28/2014 13:30 MST5.25P  1,220P  0.00P  
07/28/2014 13:44 MST5.29P  1,250P  0.00P  
07/28/2014 13:45 MST5.29P  1,250P  0.00P  
07/28/2014 13:59 MST5.28P  1,240P  0.00P  
07/28/2014 14:00 MST5.28P  1,240P  0.00P  
07/28/2014 14:14 MST5.29P  1,250P  0.00P  
07/28/2014 14:15 MST5.29P  1,250P  0.00P  
07/28/2014 14:29 MST5.33P  1,290P  0.00P  
07/28/2014 14:30 MST5.33P  1,290P  0.00P  
07/28/2014 14:44 MST5.32P  1,280P  0.00P  
07/28/2014 14:45 MST5.32P  1,280P  0.00P  
07/28/2014 14:59 MST5.30P  1,260P  0.00P  
07/28/2014 15:00 MST5.30P  1,260P  0.00P  
07/28/2014 15:14 MST5.41P  1,360P  0.00P  
07/28/2014 15:15 MST5.41P  1,360P  0.00P  
07/28/2014 15:29 MST5.43P  1,370P  0.00P  
07/28/2014 15:30 MST5.43P  1,370P  0.00P  
07/28/2014 15:44 MST5.41P  1,360P  0.00P  
07/28/2014 15:45 MST5.41P  1,360P  0.00P  
07/28/2014 15:59 MST5.53P  1,470P  0.00P  
07/28/2014 16:00 MST5.53P  1,470P  0.00P  
07/28/2014 16:14 MST5.46P  1,400P  0.00P  
07/28/2014 16:15 MST5.46P  1,400P  0.00P  
07/28/2014 16:29 MST5.50P  1,440P  0.00P  
07/28/2014 16:30 MST5.50P  1,440P  0.00P  
07/28/2014 16:44 MST5.50P  1,440P  0.00P  
07/28/2014 16:45 MST5.50P  1,440P  0.00P  
07/28/2014 16:59 MST5.56P  1,490P  0.00P  
07/28/2014 17:00 MST5.56P  1,490P  0.00P  
07/28/2014 17:14 MST5.50P  1,440P  0.00P  
07/28/2014 17:15 MST5.50P  1,440P  0.00P  
07/28/2014 17:29 MST5.52P  1,460P  0.00P  
07/28/2014 17:30 MST5.52P  1,460P  0.00P  
07/28/2014 17:44 MST5.42P  1,370P  0.00P  
07/28/2014 17:45 MST5.42P  1,370P  0.00P  
07/28/2014 17:59 MST5.61P  1,540P  0.00P  
07/28/2014 18:00 MST5.61P  1,540P  0.00P  
07/28/2014 18:14 MST5.60P  1,530P  0.00P  
07/28/2014 18:15 MST5.60P  1,530P  0.00P  
07/28/2014 18:29 MST5.65P  1,580P  0.00P  
07/28/2014 18:30 MST5.65P  1,580P  0.00P  
07/28/2014 18:44 MST5.77P  1,700P  0.00P  
07/28/2014 18:45 MST5.77P  1,700P  0.00P  
07/28/2014 18:59 MST5.66P  1,590P  0.00P  
07/28/2014 19:00 MST5.66P  1,590P  0.00P  
07/28/2014 19:14 MST5.79P  1,720P  0.00P  
07/28/2014 19:15 MST5.79P  1,720P  0.00P  
07/28/2014 19:29 MST5.80P  1,730P  0.00P  
07/28/2014 19:30 MST5.80P  1,730P  0.00P  
07/28/2014 19:44 MST5.83P  1,760P  0.00P  
07/28/2014 19:45 MST5.83P  1,760P  0.00P  
07/28/2014 19:59 MST5.85P  1,780P  0.00P  
07/28/2014 20:00 MST5.85P  1,780P  0.00P  
07/28/2014 20:14 MST5.82P  1,750P  0.00P  
07/28/2014 20:15 MST5.82P  1,750P  0.00P  
07/28/2014 20:29 MST5.97P  1,910P  0.00P  
07/28/2014 20:30 MST5.97P  1,910P  0.00P  
07/28/2014 20:44 MST5.96P  1,900P  0.00P  
07/28/2014 20:45 MST5.96P  1,900P  0.00P  
07/28/2014 20:59 MST6.08P  2,040P  0.00P  
07/28/2014 21:00 MST6.08P  2,040P  0.00P  
07/28/2014 21:14 MST6.08P  2,040P  0.00P  
07/28/2014 21:15 MST6.08P  2,040P  0.00P  
07/28/2014 21:29 MST6.03P  1,980P  0.00P  
07/28/2014 21:30 MST6.03P  1,980P  0.00P  
07/28/2014 21:44 MST6.01P  1,960P  0.00P  
07/28/2014 21:45 MST6.01P  1,960P  0.00P  
07/28/2014 21:59 MST6.01P  1,960P  0.00P  
07/28/2014 22:00 MST6.01P  1,960P  0.00P  
07/28/2014 22:14 MST6.11P  2,070P  0.00P  
07/28/2014 22:15 MST6.11P  2,070P  0.00P  
07/28/2014 22:29 MST6.06P  2,010P  0.00P  
07/28/2014 22:30 MST6.06P  2,010P  0.00P  
07/28/2014 22:44 MST6.00P  1,950P  0.00P  
07/28/2014 22:45 MST6.00P  1,950P  0.00P  
07/28/2014 22:59 MST5.87P  1,810P  0.00P  
07/28/2014 23:00 MST5.87P  1,810P  0.00P  
07/28/2014 23:14 MST5.62P  1,550P  0.00P  
07/28/2014 23:15 MST5.62P  1,550P  0.00P  
07/28/2014 23:29 MST5.36P  1,310P  0.00P  
07/28/2014 23:30 MST5.36P  1,310P  0.00P  
07/28/2014 23:44 MST5.11P  1,110P  0.00P  
07/28/2014 23:45 MST5.11P  1,110P  0.00P  
07/28/2014 23:59 MST4.92P  958P  0.00P  
07/29/2014 00:00 MST4.92P  958P  0.00P  
07/29/2014 00:14 MST4.76P  843P  0.00P  
07/29/2014 00:15 MST4.76P  843P  0.00P  
07/29/2014 00:29 MST4.57P  720P  0.00P  
07/29/2014 00:30 MST4.57P  720P  0.00P  
07/29/2014 00:44 MST4.52P  689P  0.00P  
07/29/2014 00:45 MST4.52P  689P  0.00P  
07/29/2014 00:59 MST4.40P  619P  0.00P  
07/29/2014 01:00 MST4.40P  619P  0.00P  
07/29/2014 01:14 MST4.30P  565P  0.00P  
07/29/2014 01:15 MST4.30P  565P  0.00P  
07/29/2014 01:29 MST4.16P  494P  0.00P  
07/29/2014 01:30 MST4.16P  494P  0.00P  
07/29/2014 01:44 MST4.14P  484P  0.00P  
07/29/2014 01:45 MST4.14P  484P  0.00P  
07/29/2014 02:00 MST4.07P  451P  0.00P  
07/29/2014 02:15 MST4.01P  424P  0.00P  
07/29/2014 02:30 MST3.98P  411P  0.00P  
07/29/2014 02:45 MST3.93P  390P  0.00P  
07/29/2014 03:00 MST3.88P  369P  0.00P  
07/29/2014 03:15 MST3.84P  354P  0.00P  
07/29/2014 03:30 MST3.77P  327P  0.00P  
07/29/2014 03:45 MST3.77P  327P  0.00P  
07/29/2014 04:00 MST3.70P  301P  0.00P  
07/29/2014 04:15 MST3.70P  301P  0.00P  
07/29/2014 04:30 MST3.64P  281P  0.00P  
07/29/2014 04:45 MST3.61P  271P  0.00P  
07/29/2014 05:00 MST3.59P  264P  0.00P  
07/29/2014 05:15 MST3.57P  258P  0.00P  
07/29/2014 05:30 MST3.53P  245P  0.00P  
07/29/2014 05:45 MST3.50P  236P  0.00P  
07/29/2014 06:00 MST3.48P  230P  0.00P  
07/29/2014 06:15 MST3.45P  221P  0.00P  
07/29/2014 06:30 MST3.45P  221P  0.00P  
07/29/2014 06:45 MST3.42P  212P  0.00P  
07/29/2014 07:00 MST3.39P  203P  0.00P  
07/29/2014 07:15 MST3.39P  203P  0.00P  
07/29/2014 07:30 MST3.35P  192P  0.00P  
07/29/2014 07:45 MST3.34P  189P  0.00P  
07/29/2014 08:00 MST3.33P  186P  0.00P  
07/29/2014 08:15 MST3.31P  181P  0.00P  
07/29/2014 08:30 MST3.30P  178P  0.00P  
07/29/2014 08:45 MST3.28P  173P  0.00P  
07/29/2014 09:00 MST3.26P  168P  0.00P  
07/29/2014 09:15 MST3.25P  165P  0.00P  
07/29/2014 09:30 MST3.21P  155P  0.00P  
07/29/2014 09:45 MST3.22P  158P  0.00P  
07/29/2014 10:00 MST3.20P  153P  0.00P  
07/29/2014 10:15 MST3.18P  148P  0.00P  
07/29/2014 10:30 MST3.17P  146P  0.00P  
07/29/2014 10:45 MST3.16P  143P  0.00P  
07/29/2014 11:00 MST3.15P  141P  0.00P  
07/29/2014 11:15 MST3.12P  134P  0.00P  
07/29/2014 11:30 MST3.11P  132P  0.00P  
07/29/2014 11:45 MST3.10P  130P  0.00P  
07/29/2014 12:00 MST3.10P  130P  0.00P  
07/29/2014 12:15 MST3.07P  123P  0.00P  
07/29/2014 12:30 MST3.07P  123P  0.00P  
07/29/2014 12:45 MST3.05P  119P  0.00P  
07/29/2014 13:00 MST3.04P  117P  0.00P  
07/29/2014 13:15 MST3.03P  115P  0.00P  
07/29/2014 13:30 MST3.02P  113P  0.00P  
07/29/2014 13:45 MST3.01P  111P  0.00P  
07/29/2014 14:00 MST2.99P  107P  0.00P  
07/29/2014 14:15 MST2.99P  107P  0.00P  
07/29/2014 14:30 MST2.97P  104P  0.00P  
07/29/2014 14:45 MST2.97P  104P  0.00P  
07/29/2014 15:00 MST2.96P  102P  0.00P  
07/29/2014 15:15 MST2.94P  98.0P  0.00P  
07/29/2014 15:30 MST2.92P  94.4P  0.00P  
07/29/2014 15:45 MST2.92P  94.4P  0.00P  
07/29/2014 16:00 MST2.91P  92.7P  0.00P  
07/29/2014 16:15 MST2.90P  91.0P  0.00P  
07/29/2014 16:30 MST2.90P  91.0P  0.00P  
07/29/2014 16:45 MST2.89P  89.3P  0.00P  
07/29/2014 17:00 MST2.87P  85.9P  0.00P  
07/29/2014 17:15 MST2.87P  85.9P  0.00P  
07/29/2014 17:30 MST2.86P  84.3P  0.00P  
07/29/2014 17:45 MST2.86P  84.3P  0.00P  
07/29/2014 18:00 MST2.84P  82.6P  0.00P  
07/29/2014 18:15 MST2.84P  82.6P  0.00P  
07/29/2014 18:30 MST2.83P  81.0P  0.00P  
07/29/2014 18:45 MST2.82P  79.5P  0.00P  
07/29/2014 19:00 MST2.81P  77.9P  0.00P  
07/29/2014 19:15 MST2.81P  77.9P  0.00P  
07/29/2014 19:30 MST2.80P  76.4P  0.00P  
07/29/2014 19:45 MST2.79P  74.8P  0.00P  
07/29/2014 20:00 MST2.79P  74.8P  0.00P  
07/29/2014 20:15 MST2.77P  71.9P  0.00P  
07/29/2014 20:30 MST2.76P  70.4P  0.00P  
07/29/2014 20:45 MST2.76P  70.4P  0.00P  
07/29/2014 21:00 MST2.76P  70.4P  0.00P  
07/29/2014 21:15 MST2.76P  70.4P  0.00P  
07/29/2014 21:30 MST2.75P  69.0P  0.00P  
07/29/2014 21:45 MST2.74P  67.6P  0.00P  
07/29/2014 22:00 MST2.74P  67.6P  0.00P  
07/29/2014 22:15 MST2.73P  66.2P  0.00P  
07/29/2014 22:30 MST2.72P  64.8P  0.00P  
07/29/2014 22:45 MST2.71P  63.4P  0.00P  
07/29/2014 23:00 MST2.71P  63.4P  0.00P  
07/29/2014 23:15 MST2.70P  62.1P  0.00P  
07/29/2014 23:30 MST2.70P  62.1P  0.00P  
07/29/2014 23:45 MST2.70P  62.1P  0.00P  
07/30/2014 00:00 MST2.69P  60.7P  0.00P  
07/30/2014 00:15 MST2.69P  60.7P  0.00P  
07/30/2014 00:30 MST2.68P  59.4P  0.00P  
07/30/2014 00:45 MST2.68P  59.4P  0.00P  
07/30/2014 01:00 MST2.67P  58.2P  0.00P  
07/30/2014 01:15 MST2.67P  58.2P  0.00P  
07/30/2014 01:29 MST2.66P  56.9P  0.00P  
07/30/2014 01:30 MST2.66P  56.9P  0.00P  
07/30/2014 01:44 MST2.65P  55.6P  0.00P  
07/30/2014 01:45 MST2.65P  55.6P  0.00P  
07/30/2014 02:00 MST2.66P  56.9P  0.00P  
07/30/2014 02:15 MST2.65P  55.6P  0.00P  
07/30/2014 02:30 MST2.64P  54.4P  0.00P  
07/30/2014 02:45 MST2.64P  54.4P  0.00P  
07/30/2014 03:00 MST2.63P  53.2P  0.00P  
07/30/2014 03:15 MST2.63P  53.2P  0.00P  
07/30/2014 03:30 MST2.63P  53.2P  0.00P  
07/30/2014 03:45 MST2.62P  52.0P  0.00P  
07/30/2014 04:00 MST2.62P  52.0P  0.00P  
07/30/2014 04:15 MST2.61P  50.8P  0.00P  
07/30/2014 04:30 MST2.61P  50.8P  0.00P  
07/30/2014 04:45 MST2.61P  50.8P  0.00P  
07/30/2014 05:00 MST2.60P  49.7P  0.00P  
07/30/2014 05:15 MST2.60P  49.7P  0.00P  
07/30/2014 05:30 MST2.60P  49.7P  0.00P  
07/30/2014 05:45 MST2.59P  48.5P  0.00P  
07/30/2014 06:00 MST2.59P  48.5P  0.00P  
07/30/2014 06:15 MST2.59P  48.5P  0.00P  
07/30/2014 06:30 MST2.59P  48.5P  0.00P  
07/30/2014 06:45 MST2.59P  48.5P  0.00P  
07/30/2014 07:00 MST2.58P  47.4P  0.00P  
07/30/2014 07:15 MST2.58P  47.4P  0.00P  
07/30/2014 07:30 MST2.57P  46.3P  0.00P  
07/30/2014 07:45 MST2.57P  46.3P  0.00P  
07/30/2014 08:00 MST2.56P  45.2P  0.00P  
07/30/2014 08:15 MST2.56P  45.2P  0.00P  
07/30/2014 08:30 MST2.55P  44.1P  0.00P  
07/30/2014 08:45 MST2.56P  45.2P  0.00P  
07/30/2014 09:00 MST2.55P  44.1P  0.00P  
07/30/2014 09:15 MST2.55P  44.1P  0.00P  
07/30/2014 09:30 MST2.55P  44.1P  0.00P  
07/30/2014 09:45 MST2.54P  43.1P  0.00P  
07/30/2014 10:00 MST2.54P  43.1P  0.00P  
07/30/2014 10:15 MST2.54P  43.1P  0.00P  
07/30/2014 10:30 MST2.53P  42.0P  0.00P  
07/30/2014 10:45 MST2.53P  42.0P  0.00P  
07/30/2014 11:00 MST2.53P  42.0P  0.00P  
07/30/2014 11:15 MST2.52P  41.0P  0.00P  
07/30/2014 11:30 MST2.52P  41.0P  0.00P  
07/30/2014 11:45 MST2.51P  40.0P  0.00P  
07/30/2014 12:00 MST2.51P  40.0P  0.00P  
07/30/2014 12:15 MST2.51P  40.0P  0.00P  
07/30/2014 12:30 MST2.50P  39.0P  0.00P  
07/30/2014 12:45 MST2.50P  39.0P  0.00P  
07/30/2014 13:00 MST2.50P  39.0P  0.00P  
07/30/2014 13:15 MST2.49P  38.0P  0.00P  
07/30/2014 13:30 MST2.49P  38.0P  0.00P  
07/30/2014 13:45 MST2.49P  38.0P  0.00P  
07/30/2014 14:00 MST2.48P  37.1P  0.00P  
07/30/2014 14:15 MST2.48P  37.1P  0.00P  
07/30/2014 14:30 MST2.48P  37.1P  0.00P  
07/30/2014 14:45 MST2.48P  37.1P  0.00P  
07/30/2014 15:00 MST2.47P  36.1P  0.00P  
07/30/2014 15:15 MST2.47P  36.1P  0.00P  
07/30/2014 15:30 MST2.47P  36.1P  0.00P  
07/30/2014 15:45 MST2.46P  35.2P  0.00P  
07/30/2014 16:00 MST2.46P  35.2P  0.00P  
07/30/2014 16:15 MST2.46P  35.2P  0.00P  
07/30/2014 16:30 MST2.45P  34.3P  0.00P  
07/30/2014 16:45 MST2.45P  34.3P  0.00P  
07/30/2014 17:00 MST2.45P  34.3P  0.00P  
07/30/2014 17:15 MST2.45P  34.3P  0.00P  
07/30/2014 17:30 MST2.44P  33.4P  0.00P  
07/30/2014 17:45 MST2.44P  33.4P  0.00P  
07/30/2014 18:00 MST2.44P  33.4P  0.00P  
07/30/2014 18:15 MST2.44P  33.4P  0.00P  
07/30/2014 18:30 MST2.43P  32.5P  0.00P  
07/30/2014 18:45 MST2.43P  32.5P  0.00P  
07/30/2014 19:00 MST2.43P  32.5P  0.00P  
07/30/2014 19:15 MST2.43P  32.5P  0.00P  
07/30/2014 19:30 MST2.43P  32.5P  0.00P  
07/30/2014 19:45 MST2.42P  31.6P  0.00P  
07/30/2014 20:00 MST2.42P  31.6P  0.00P  

Explanation
  P  Provisional data subject to revision.

Questions about sites/data?
Feedback on this web site
Automated retrievals
Help
Data Tips
Explanation of terms
Subscribe for system changes
News

Accessibility Plug-Ins FOIA Privacy Policies and Notices

Take Pride in America logo USA.gov logo U.S. Department of the Interior | U.S. Geological Survey
Title: USGS Current Conditions for Arizona
URL: http://waterdata.usgs.gov/az/nwis/uv?

Page Contact Information: Arizona Water Data Support Team
Page Last Modified: 2014-07-30 23:23:23 EDT
0.91   0.68 vaww02